createdAt,value
2023-04-09T00:00:37.113Z,85.61
2023-04-09T00:03:03.703Z,85.75
2023-04-09T00:05:30.519Z,86.47
2023-04-09T00:07:57.127Z,86.54
2023-04-09T00:10:23.469Z,87.11
2023-04-09T00:12:49.818Z,86.95
2023-04-09T00:15:27.839Z,86.82
2023-04-09T00:17:57.366Z,86.52
2023-04-09T00:20:23.832Z,86.27
2023-04-09T00:22:51.605Z,86.48
2023-04-09T00:25:18.250Z,86.80
2023-04-09T00:27:44.612Z,86.47
2023-04-09T00:30:11.505Z,87.20
2023-04-09T00:32:37.909Z,87.00
2023-04-09T00:35:04.521Z,87.50
2023-04-09T00:37:30.881Z,87.35
2023-04-09T00:39:57.195Z,87.46
2023-04-09T00:42:23.801Z,87.54
2023-04-09T00:44:50.119Z,87.60
2023-04-09T00:47:17.116Z,87.57
2023-04-09T00:49:44.449Z,87.94
2023-04-09T00:52:11.038Z,87.97
2023-04-09T00:54:37.421Z,88.24
2023-04-09T00:57:03.766Z,88.50
2023-04-09T00:59:30.184Z,88.29
2023-04-09T01:01:56.759Z,88.54
2023-04-09T01:04:24.141Z,88.81
2023-04-09T01:07:03.122Z,88.88
2023-04-09T01:09:51.902Z,88.84
2023-04-09T01:12:38.678Z,88.67
2023-04-09T01:15:08.507Z,88.73
2023-04-09T01:17:41.448Z,88.77
2023-04-09T01:20:26.988Z,89.12
2023-04-09T01:23:11.114Z,89.17
2023-04-09T01:26:02.916Z,89.57
2023-04-09T01:28:42.496Z,89.49
2023-04-09T01:31:15.983Z,89.74
2023-04-09T01:33:43.225Z,89.91
2023-04-09T01:36:10.819Z,89.62
2023-04-09T01:38:41.404Z,89.90
2023-04-09T01:41:23.885Z,89.75
2023-04-09T01:43:51.506Z,89.85
2023-04-09T01:46:18.760Z,89.94
2023-04-09T01:48:46.395Z,90.10
2023-04-09T01:51:14.187Z,90.24
2023-04-09T01:53:41.632Z,90.20
2023-04-09T01:56:09.247Z,90.19
2023-04-09T01:58:36.292Z,90.31
2023-04-09T02:01:15.526Z,89.97
2023-04-09T02:03:51.314Z,90.07
2023-04-09T02:06:39.895Z,90.16
2023-04-09T02:09:08.975Z,90.28
2023-04-09T02:11:40.265Z,90.39
2023-04-09T02:14:11.045Z,90.37
2023-04-09T02:16:38.923Z,90.34
2023-04-09T02:19:05.537Z,90.19
2023-04-09T02:21:32.143Z,90.39
2023-04-09T02:23:58.507Z,90.19
2023-04-09T02:26:25.534Z,90.48
2023-04-09T02:28:52.079Z,90.95
2023-04-09T02:31:18.829Z,90.95
2023-04-09T02:33:45.323Z,91.41
2023-04-09T02:36:12.859Z,91.35
2023-04-09T02:38:42.728Z,90.91
2023-04-09T02:41:09.933Z,91.27
2023-04-09T02:43:36.689Z,91.24
2023-04-09T02:46:03.376Z,92.05
2023-04-09T02:48:30.843Z,92.35
2023-04-09T02:50:57.282Z,91.91
2023-04-09T02:53:23.710Z,92.48
2023-04-09T02:55:50.068Z,92.36
2023-04-09T02:58:16.391Z,93.11
2023-04-09T03:00:43.143Z,92.99
2023-04-09T03:03:09.787Z,92.99
2023-04-09T03:05:36.680Z,92.73
2023-04-09T03:08:03.863Z,93.15
2023-04-09T03:10:30.400Z,93.20
2023-04-09T03:12:56.732Z,93.03
2023-04-09T03:15:23.050Z,93.00
2023-04-09T03:17:49.487Z,93.37
2023-04-09T03:20:15.898Z,93.70
2023-04-09T03:22:42.258Z,93.74
2023-04-09T03:25:21.196Z,93.33
2023-04-09T03:27:51.052Z,93.54
2023-04-09T03:30:25.509Z,93.35
2023-04-09T03:32:52.249Z,93.46
2023-04-09T03:35:19.884Z,93.47
2023-04-09T03:37:46.583Z,93.06
2023-04-09T03:40:17.346Z,93.84
2023-04-09T03:42:44.063Z,93.14
2023-04-09T03:45:12.852Z,93.12
2023-04-09T03:47:43.637Z,93.90
2023-04-09T03:50:10.761Z,93.05
2023-04-09T03:52:47.304Z,93.04
2023-04-09T03:55:13.722Z,93.89
2023-04-09T03:57:40.237Z,92.71
2023-04-09T04:00:11.282Z,93.37
2023-04-09T04:02:50.229Z,94.27
2023-04-09T04:05:24.495Z,93.71
2023-04-09T04:07:51.645Z,93.45
2023-04-09T04:10:25.278Z,93.89
2023-04-09T04:12:51.711Z,93.79
2023-04-09T04:15:25.473Z,93.60
2023-04-09T04:17:55.244Z,94.59
2023-04-09T04:20:38.967Z,94.12
2023-04-09T04:23:12.014Z,94.37
2023-04-09T04:25:46.566Z,94.01
2023-04-09T04:28:17.492Z,93.79
2023-04-09T04:30:43.908Z,93.88
2023-04-09T04:33:10.813Z,94.47
2023-04-09T04:35:43.864Z,94.04
2023-04-09T04:38:27.000Z,93.81
2023-04-09T04:40:53.871Z,94.21
2023-04-09T04:43:21.536Z,93.93
2023-04-09T04:45:49.450Z,94.09
2023-04-09T04:48:15.929Z,94.57
2023-04-09T04:50:42.278Z,94.45
2023-04-09T04:53:09.460Z,94.10
2023-04-09T04:55:43.775Z,93.88
2023-04-09T04:58:13.716Z,94.23
2023-04-09T05:00:47.675Z,93.87
2023-04-09T05:03:14.751Z,93.80
2023-04-09T05:05:53.094Z,94.34
2023-04-09T05:08:20.611Z,94.54
2023-04-09T05:10:51.117Z,94.85
2023-04-09T05:13:19.509Z,93.81
2023-04-09T05:15:45.863Z,94.62
2023-04-09T05:18:12.370Z,94.81
2023-04-09T05:20:39.353Z,94.36
2023-04-09T05:23:10.227Z,95.10
2023-04-09T05:25:40.783Z,95.51
2023-04-09T05:28:12.745Z,95.32
2023-04-09T05:30:40.884Z,95.10
2023-04-09T05:33:08.489Z,95.04
2023-04-09T05:35:38.621Z,95.30
2023-04-09T05:38:05.191Z,95.93
2023-04-09T05:40:31.655Z,95.92
2023-04-09T05:42:58.009Z,95.96
2023-04-09T05:45:37.031Z,96.64
2023-04-09T05:48:03.690Z,96.12
2023-04-09T05:50:33.085Z,96.77
2023-04-09T05:53:04.973Z,96.42
2023-04-09T05:55:37.835Z,96.78
2023-04-09T05:58:04.169Z,97.17
2023-04-09T06:00:30.714Z,96.62
2023-04-09T06:02:57.147Z,96.35
2023-04-09T06:05:23.549Z,96.22
2023-04-09T06:07:51.055Z,96.08
2023-04-09T06:10:17.481Z,96.47
2023-04-09T06:12:43.887Z,96.12
2023-04-09T06:15:10.808Z,95.58
2023-04-09T06:17:37.245Z,95.53
2023-04-09T06:20:03.938Z,94.67
2023-04-09T06:22:30.460Z,94.32
2023-04-09T06:24:56.806Z,94.21
2023-04-09T06:27:23.203Z,93.29
2023-04-09T06:29:49.542Z,93.33
2023-04-09T06:32:16.756Z,92.80
2023-04-09T06:34:43.118Z,92.91
2023-04-09T06:37:09.419Z,92.27
2023-04-09T06:39:37.414Z,91.76
2023-04-09T06:42:05.074Z,91.02
2023-04-09T06:44:38.425Z,90.58
2023-04-09T06:47:04.763Z,89.86
2023-04-09T06:49:31.076Z,89.05
2023-04-09T06:51:57.792Z,89.07
2023-04-09T06:54:24.093Z,88.56
2023-04-09T06:56:50.578Z,87.98
2023-04-09T06:59:16.941Z,87.40
2023-04-09T07:01:43.544Z,86.42
2023-04-09T07:04:10.527Z,87.26
2023-04-09T07:06:36.946Z,84.84
2023-04-09T07:09:03.444Z,84.05
2023-04-09T07:11:29.804Z,84.12
2023-04-09T07:13:56.689Z,82.71
2023-04-09T07:16:23.555Z,81.88
2023-04-09T07:18:50.542Z,81.22
2023-04-09T07:21:17.032Z,81.53
2023-04-09T07:23:43.350Z,78.97
2023-04-09T07:26:10.298Z,78.00
2023-04-09T07:28:36.883Z,78.62
2023-04-09T07:31:03.766Z,78.19
2023-04-09T07:33:30.165Z,77.89
2023-04-09T07:35:56.677Z,76.96
2023-04-09T07:38:23.085Z,76.37
2023-04-09T07:40:49.443Z,76.24
2023-04-09T07:43:16.693Z,74.84
2023-04-09T07:45:44.444Z,76.46
2023-04-09T07:48:10.941Z,75.28
2023-04-09T07:50:37.985Z,75.66
2023-04-09T07:53:04.478Z,76.68
2023-04-09T07:55:30.953Z,75.12
2023-04-09T07:57:57.280Z,75.35
2023-04-09T08:00:23.662Z,72.73
2023-04-09T08:02:50.743Z,72.45
2023-04-09T08:05:17.383Z,72.52
2023-04-09T08:07:43.822Z,71.29
2023-04-09T08:10:14.881Z,71.85
2023-04-09T08:12:41.669Z,70.82
2023-04-09T08:15:08.451Z,69.75
2023-04-09T08:17:36.901Z,69.49
2023-04-09T08:20:07.206Z,69.09
2023-04-09T08:22:34.477Z,68.00
2023-04-09T08:25:02.761Z,68.16
2023-04-09T08:27:29.317Z,69.76
2023-04-09T08:29:55.677Z,66.91
2023-04-09T08:32:22.097Z,65.84
2023-04-09T08:34:48.472Z,63.96
2023-04-09T08:37:14.805Z,62.90
2023-04-09T08:39:41.119Z,62.38
2023-04-09T08:42:08.128Z,63.72
2023-04-09T08:44:34.560Z,59.55
2023-04-09T08:47:01.582Z,59.36
2023-04-09T08:49:28.149Z,58.76
2023-04-09T08:51:54.653Z,59.58
2023-04-09T08:54:21.025Z,59.07
2023-04-09T08:56:47.708Z,57.51
2023-04-09T08:59:18.497Z,56.56
2023-04-09T09:01:47.776Z,57.71
2023-04-09T09:04:14.297Z,54.86
2023-04-09T09:06:41.623Z,57.30
2023-04-09T09:09:13.042Z,58.50
2023-04-09T09:11:42.943Z,54.38
2023-04-09T09:14:14.389Z,54.06
2023-04-09T09:16:43.696Z,52.57
2023-04-09T09:19:33.276Z,50.86
2023-04-09T09:22:01.816Z,53.30
2023-04-09T09:24:28.664Z,50.05
2023-04-09T09:26:55.650Z,49.68
2023-04-09T09:29:22.024Z,49.96
2023-04-09T09:31:56.128Z,50.48
2023-04-09T09:34:25.135Z,51.07
2023-04-09T09:36:51.491Z,51.54
2023-04-09T09:39:18.080Z,50.67
2023-04-09T09:41:46.238Z,49.15
2023-04-09T09:44:31.160Z,48.61
2023-04-09T09:46:58.906Z,47.33
2023-04-09T09:49:25.302Z,48.53
2023-04-09T09:51:53.425Z,45.51
2023-04-09T09:54:22.552Z,45.52
2023-04-09T09:56:52.483Z,44.67
2023-04-09T09:59:26.902Z,46.45
2023-04-09T10:02:05.828Z,44.09
2023-04-09T10:04:38.387Z,45.32
2023-04-09T10:07:06.841Z,46.05
2023-04-09T10:09:35.773Z,45.75
2023-04-09T10:12:04.832Z,42.72
2023-04-09T10:14:31.449Z,43.36
2023-04-09T10:16:58.312Z,43.09
2023-04-09T10:19:24.885Z,43.17
2023-04-09T10:21:57.711Z,42.46
2023-04-09T10:24:24.878Z,44.37
2023-04-09T10:26:54.808Z,42.28
2023-04-09T10:29:29.066Z,41.96
2023-04-09T10:32:05.573Z,44.40
2023-04-09T10:34:44.965Z,44.05
2023-04-09T10:37:29.914Z,41.27
2023-04-09T10:39:57.606Z,41.48
2023-04-09T10:42:29.768Z,42.37
2023-04-09T10:45:09.615Z,41.41
2023-04-09T10:47:38.348Z,42.23
2023-04-09T10:50:32.111Z,41.63
2023-04-09T10:53:00.264Z,41.64
2023-04-09T10:55:38.081Z,40.11
2023-04-09T10:58:05.966Z,40.85
2023-04-09T11:00:37.691Z,41.46
2023-04-09T11:03:10.652Z,43.34
2023-04-09T11:05:38.313Z,40.92
2023-04-09T11:08:13.181Z,39.85
2023-04-09T11:10:44.832Z,41.28
2023-04-09T11:13:13.269Z,40.99
2023-04-09T11:15:40.317Z,41.05
2023-04-09T11:18:07.026Z,41.89
2023-04-09T11:20:34.441Z,42.30
2023-04-09T11:23:01.032Z,39.75
2023-04-09T11:25:29.777Z,40.78
2023-04-09T11:27:56.248Z,42.51
2023-04-09T11:30:22.858Z,42.39
2023-04-09T11:32:50.451Z,41.34
2023-04-09T11:35:18.960Z,43.31
2023-04-09T11:37:46.473Z,42.54
2023-04-09T11:40:24.293Z,42.40
2023-04-09T11:42:53.273Z,42.43
2023-04-09T11:45:24.697Z,42.50
2023-04-09T11:47:51.605Z,42.61
2023-04-09T11:50:19.801Z,43.47
2023-04-09T11:52:46.752Z,41.72
2023-04-09T11:55:23.718Z,43.86
2023-04-09T11:57:51.984Z,42.63
2023-04-09T12:00:19.609Z,39.82
2023-04-09T12:02:48.195Z,40.54
2023-04-09T12:05:23.098Z,38.50
2023-04-09T12:07:56.424Z,40.39
2023-04-09T12:10:28.264Z,39.16
2023-04-09T12:12:55.122Z,39.74
2023-04-09T12:15:25.288Z,40.30
2023-04-09T12:17:54.678Z,40.97
2023-04-09T12:20:29.355Z,39.39
2023-04-09T12:22:56.388Z,40.18
2023-04-09T12:25:22.895Z,40.58
2023-04-09T12:27:49.632Z,38.48
2023-04-09T12:30:16.083Z,37.14
2023-04-09T12:32:44.626Z,38.70
2023-04-09T12:35:11.320Z,38.85
2023-04-09T12:37:37.696Z,38.95
2023-04-09T12:40:04.448Z,37.80
2023-04-09T12:42:30.927Z,38.92
2023-04-09T12:44:57.237Z,37.80
2023-04-09T12:47:23.619Z,37.26
2023-04-09T12:49:50.139Z,37.10
2023-04-09T12:52:18.451Z,36.18
2023-04-09T12:54:45.034Z,36.88
2023-04-09T12:57:11.478Z,37.22
2023-04-09T12:59:37.814Z,38.67
2023-04-09T13:02:04.279Z,37.36
2023-04-09T13:04:31.153Z,37.15
2023-04-09T13:06:57.778Z,36.38
2023-04-09T13:09:24.155Z,36.90
2023-04-09T13:11:50.520Z,36.21
2023-04-09T13:14:16.874Z,38.83
2023-04-09T13:16:43.207Z,36.25
2023-04-09T13:19:09.955Z,36.07
2023-04-09T13:21:36.427Z,37.57
2023-04-09T13:24:03.974Z,36.67
2023-04-09T13:26:31.343Z,37.23
2023-04-09T13:28:58.683Z,37.20
2023-04-09T13:31:25.353Z,35.19
2023-04-09T13:33:51.736Z,36.07
2023-04-09T13:36:18.068Z,37.14
2023-04-09T13:38:44.551Z,36.04
2023-04-09T13:41:11.021Z,35.04
2023-04-09T13:43:37.398Z,34.87
2023-04-09T13:46:04.774Z,35.87
2023-04-09T13:48:31.172Z,37.11
2023-04-09T13:50:57.762Z,35.48
2023-04-09T13:53:25.092Z,36.47
2023-04-09T13:55:51.471Z,35.46
2023-04-09T13:58:18.064Z,36.37
2023-04-09T14:00:44.429Z,35.81
2023-04-09T14:03:11.233Z,36.71
2023-04-09T14:05:37.712Z,38.09
2023-04-09T14:08:04.110Z,38.28
2023-04-09T14:10:30.723Z,36.58
2023-04-09T14:12:57.097Z,38.44
2023-04-09T14:15:23.529Z,37.04
2023-04-09T14:17:49.846Z,35.83
2023-04-09T14:20:16.284Z,37.50
2023-04-09T14:22:42.924Z,37.74
2023-04-09T14:25:09.518Z,37.84
2023-04-09T14:27:36.336Z,38.75
2023-04-09T14:30:03.532Z,37.67
2023-04-09T14:32:29.953Z,37.27
2023-04-09T14:34:56.323Z,37.98
2023-04-09T14:37:22.981Z,37.92
2023-04-09T14:39:49.381Z,37.00
2023-04-09T14:42:15.764Z,38.06
2023-04-09T14:44:42.141Z,38.55
2023-04-09T14:47:08.546Z,37.28
2023-04-09T14:49:35.125Z,36.17
2023-04-09T14:52:01.464Z,36.24
2023-04-09T14:54:30.208Z,34.85
2023-04-09T14:56:58.231Z,35.81
2023-04-09T14:59:25.588Z,36.96
2023-04-09T15:01:52.750Z,36.64
2023-04-09T15:04:19.239Z,38.04
2023-04-09T15:06:45.611Z,36.79
2023-04-09T15:09:12.028Z,36.99
2023-04-09T15:11:38.434Z,35.08
2023-04-09T15:14:04.778Z,33.95
2023-04-09T15:16:33.217Z,37.05
2023-04-09T15:18:59.941Z,38.34
2023-04-09T15:21:27.565Z,35.38
2023-04-09T15:23:53.989Z,34.15
2023-04-09T15:26:20.719Z,35.27
2023-04-09T15:28:47.198Z,35.80
2023-04-09T15:31:13.692Z,35.66
2023-04-09T15:33:42.322Z,33.23
2023-04-09T15:36:09.340Z,34.61
2023-04-09T15:38:35.974Z,35.66
2023-04-09T15:41:02.341Z,34.21
2023-04-09T15:43:28.662Z,36.13
2023-04-09T15:45:55.044Z,34.81
2023-04-09T15:48:21.550Z,34.74
2023-04-09T15:50:47.854Z,34.19
2023-04-09T15:53:15.586Z,34.57
2023-04-09T15:55:42.279Z,35.17
2023-04-09T15:58:08.724Z,35.17
2023-04-09T16:00:35.742Z,36.10
2023-04-09T16:03:02.104Z,36.60
2023-04-09T16:05:28.423Z,36.09
2023-04-09T16:07:55.574Z,35.08
2023-04-09T16:10:23.319Z,35.46
2023-04-09T16:12:49.762Z,36.11
2023-04-09T16:15:16.321Z,35.02
2023-04-09T16:17:42.667Z,36.37
2023-04-09T16:20:09.102Z,37.03
2023-04-09T16:22:35.521Z,35.90
2023-04-09T16:25:01.938Z,38.24
2023-04-09T16:27:28.251Z,36.68
2023-04-09T16:29:54.599Z,37.41
2023-04-09T16:32:21.310Z,36.81
2023-04-09T16:34:47.656Z,36.95
2023-04-09T16:37:14.068Z,38.20
2023-04-09T16:39:40.517Z,37.70
2023-04-09T16:42:07.001Z,37.56
2023-04-09T16:44:33.342Z,38.16
2023-04-09T16:47:00.940Z,38.15
2023-04-09T16:49:27.280Z,38.93
2023-04-09T16:51:54.446Z,37.78
2023-04-09T16:54:20.865Z,38.34
2023-04-09T16:56:48.614Z,38.89
2023-04-09T16:59:17.490Z,38.41
2023-04-09T17:01:43.992Z,38.69
2023-04-09T17:04:10.513Z,39.74
2023-04-09T17:06:36.932Z,39.91
2023-04-09T17:09:05.212Z,39.79
2023-04-09T17:11:32.653Z,39.44
2023-04-09T17:13:58.979Z,40.56
2023-04-09T17:16:25.640Z,40.90
2023-04-09T17:18:52.331Z,41.41
2023-04-09T17:21:18.885Z,40.50
2023-04-09T17:23:45.457Z,41.49
2023-04-09T17:26:11.831Z,40.77
2023-04-09T17:28:38.167Z,41.41
2023-04-09T17:31:13.171Z,40.66
2023-04-09T17:33:39.711Z,40.04
2023-04-09T17:36:06.458Z,40.87
2023-04-09T17:38:32.814Z,40.98
2023-04-09T17:40:59.139Z,40.97
2023-04-09T17:43:25.961Z,41.25
2023-04-09T17:45:52.366Z,41.25
2023-04-09T17:48:18.856Z,42.16
2023-04-09T17:50:45.384Z,42.43
2023-04-09T17:53:11.727Z,42.99
2023-04-09T17:55:38.096Z,42.77
2023-04-09T17:58:04.461Z,42.51
2023-04-09T18:00:31.534Z,42.12
2023-04-09T18:02:58.736Z,44.39
2023-04-09T18:05:25.908Z,43.90
2023-04-09T18:07:54.921Z,43.27
2023-04-09T18:10:21.572Z,45.22
2023-04-09T18:12:47.982Z,45.64
2023-04-09T18:15:15.051Z,44.09
2023-04-09T18:17:41.444Z,44.49
2023-04-09T18:20:08.281Z,44.97
2023-04-09T18:22:35.049Z,45.08
2023-04-09T18:25:01.838Z,45.34
2023-04-09T18:27:28.140Z,45.79
2023-04-09T18:29:54.844Z,45.35
2023-04-09T18:32:21.622Z,45.98
2023-04-09T18:34:48.296Z,45.27
2023-04-09T18:37:15.345Z,46.41
2023-04-09T18:39:41.771Z,46.95
2023-04-09T18:42:08.149Z,46.44
2023-04-09T18:44:36.269Z,47.52
2023-04-09T18:47:05.364Z,47.01
2023-04-09T18:49:35.935Z,48.25
2023-04-09T18:52:05.255Z,48.26
2023-04-09T18:54:34.801Z,47.60
2023-04-09T18:57:03.923Z,48.17
2023-04-09T18:59:31.522Z,49.29
2023-04-09T19:01:58.474Z,49.22
2023-04-09T19:04:28.061Z,49.38
2023-04-09T19:06:54.660Z,49.67
2023-04-09T19:09:21.477Z,49.37
2023-04-09T19:11:47.782Z,50.38
2023-04-09T19:14:14.121Z,50.28
2023-04-09T19:16:40.843Z,50.26
2023-04-09T19:19:07.291Z,50.47
2023-04-09T19:21:35.132Z,50.39
2023-04-09T19:24:04.310Z,50.97
2023-04-09T19:26:31.819Z,50.57
2023-04-09T19:28:58.126Z,51.20
2023-04-09T19:31:24.614Z,51.85
2023-04-09T19:33:51.592Z,51.86
2023-04-09T19:36:18.009Z,52.43
2023-04-09T19:38:44.334Z,52.55
2023-04-09T19:41:10.842Z,52.73
2023-04-09T19:43:39.210Z,53.68
2023-04-09T19:46:08.278Z,53.95
2023-04-09T19:48:35.718Z,55.14
2023-04-09T19:51:02.157Z,55.34
2023-04-09T19:53:28.536Z,55.51
2023-04-09T19:55:54.845Z,55.23
2023-04-09T19:58:21.183Z,55.14
2023-04-09T20:00:47.571Z,55.30
2023-04-09T20:03:14.067Z,55.50
2023-04-09T20:05:40.656Z,55.77
2023-04-09T20:08:11.782Z,55.66
2023-04-09T20:10:42.589Z,56.25
2023-04-09T20:13:08.945Z,56.23
2023-04-09T20:15:35.309Z,57.16
2023-04-09T20:18:01.783Z,56.73
2023-04-09T20:20:28.190Z,57.61
2023-04-09T20:22:56.485Z,58.29
2023-04-09T20:25:24.298Z,58.66
2023-04-09T20:27:54.398Z,58.84
2023-04-09T20:30:21.253Z,57.95
2023-04-09T20:32:48.850Z,58.37
2023-04-09T20:35:15.388Z,58.42
2023-04-09T20:37:41.753Z,58.41
2023-04-09T20:40:08.470Z,58.58
2023-04-09T20:42:34.806Z,58.63
2023-04-09T20:45:01.992Z,58.83
2023-04-09T20:47:28.557Z,59.14
2023-04-09T20:49:59.459Z,59.80
2023-04-09T20:52:28.258Z,60.01
2023-04-09T20:54:55.143Z,60.64
2023-04-09T20:57:21.617Z,61.25
2023-04-09T20:59:49.863Z,61.59
2023-04-09T21:02:17.413Z,61.78
2023-04-09T21:04:43.884Z,62.56
2023-04-09T21:07:10.306Z,63.05
2023-04-09T21:09:36.799Z,63.12
2023-04-09T21:12:03.165Z,64.22
2023-04-09T21:14:29.654Z,64.22
2023-04-09T21:16:56.004Z,64.47
2023-04-09T21:19:22.538Z,64.93
2023-04-09T21:21:48.911Z,65.92
2023-04-09T21:24:16.095Z,65.50
2023-04-09T21:26:51.022Z,65.83
2023-04-09T21:29:20.571Z,65.62
2023-04-09T21:31:48.027Z,65.58
2023-04-09T21:34:14.441Z,65.28
2023-04-09T21:36:41.214Z,65.00
2023-04-09T21:39:07.684Z,64.54
2023-04-09T21:41:33.999Z,65.54
2023-04-09T21:44:07.734Z,66.84
2023-04-09T21:46:37.770Z,66.50
2023-04-09T21:49:04.394Z,66.45
2023-04-09T21:51:31.423Z,66.31
2023-04-09T21:54:11.000Z,65.98
2023-04-09T21:56:38.050Z,66.35
2023-04-09T21:59:05.381Z,66.06
2023-04-09T22:01:33.325Z,66.74
2023-04-09T22:04:01.640Z,67.14
2023-04-09T22:06:28.812Z,68.24
2023-04-09T22:08:57.305Z,68.97
2023-04-09T22:11:27.433Z,68.29
2023-04-09T22:13:57.727Z,68.81
2023-04-09T22:16:25.168Z,68.38
2023-04-09T22:18:52.410Z,67.49
2023-04-09T22:21:19.045Z,67.47
2023-04-09T22:23:45.394Z,66.74
2023-04-09T22:26:11.797Z,66.04
2023-04-09T22:28:38.331Z,65.88
2023-04-09T22:31:05.103Z,65.30
2023-04-09T22:33:31.647Z,65.63
2023-04-09T22:35:59.194Z,65.55
2023-04-09T22:38:25.964Z,65.57
2023-04-09T22:40:52.513Z,65.63
2023-04-09T22:43:19.423Z,66.36
2023-04-09T22:45:55.885Z,66.01
2023-04-09T22:48:22.812Z,66.04
2023-04-09T22:50:50.215Z,65.82
2023-04-09T22:53:19.819Z,66.05
2023-04-09T22:55:47.391Z,66.99
2023-04-09T22:58:13.735Z,67.00
2023-04-09T23:00:40.296Z,67.29
2023-04-09T23:03:06.816Z,67.88
2023-04-09T23:05:33.346Z,67.93
2023-04-09T23:07:59.690Z,68.43
2023-04-09T23:10:26.306Z,68.89
2023-04-09T23:12:52.653Z,68.73
2023-04-09T23:15:19.549Z,68.73
2023-04-09T23:17:46.003Z,69.03
2023-04-09T23:20:14.640Z,69.27
2023-04-09T23:22:41.759Z,69.79
2023-04-09T23:25:08.595Z,70.09
2023-04-09T23:27:35.124Z,70.50
2023-04-09T23:30:01.453Z,71.44
2023-04-09T23:32:27.826Z,72.48
2023-04-09T23:34:54.207Z,72.57
2023-04-09T23:37:20.529Z,73.12
2023-04-09T23:39:47.663Z,74.09
2023-04-09T23:42:13.992Z,74.62
2023-04-09T23:44:40.326Z,75.08
2023-04-09T23:47:07.559Z,75.13
2023-04-09T23:49:33.930Z,76.51
2023-04-09T23:52:00.282Z,76.47
2023-04-09T23:54:26.946Z,76.52
2023-04-09T23:56:53.325Z,76.82
2023-04-09T23:59:19.660Z,77.31
